Time;durP1;ratioP1;P1;durP2;ratioP2;P2;SDS_P1;SDS_P2;PMS_P1;PMS_P2;Temp;Humidity;BMP_temperature;BMP_pressure;BME280_temperature;BME280_humidity;BME280_pressure;Samples;Min_cycle;Max_cycle;Signal;HPM_P1;HPM_P2
2023/04/16 00:02:02;;;;;;;5.88;5.35;;;;;;;5.70;100.00;95748.44;5059179;28;20060;-76
2023/04/16 00:04:28;;;;;;;5.10;4.70;;;;;;;5.66;100.00;95742.59;5058603;28;20052;-76
2023/04/16 00:06:55;;;;;;;5.40;4.88;;;;;;;5.63;100.00;95744.47;5059650;28;20056;-76
2023/04/16 00:09:21;;;;;;;7.57;5.03;;;;;;;5.71;100.00;95740.69;5060048;28;20049;-76
2023/04/16 00:11:47;;;;;;;5.57;5.03;;;;;;;5.67;100.00;95741.69;5054520;28;20055;-76
2023/04/16 00:14:15;;;;;;;5.30;4.75;;;;;;;5.71;100.00;95739.81;5057970;28;20053;-76
2023/04/16 00:16:42;;;;;;;4.85;4.45;;;;;;;5.71;100.00;95742.41;5064814;28;20060;-76
2023/04/16 00:19:08;;;;;;;4.60;4.10;;;;;;;5.69;100.00;95745.03;5059166;28;20049;-76
2023/04/16 00:21:35;;;;;;;5.03;4.60;;;;;;;5.68;100.00;95745.13;5065926;28;20519;-76
2023/04/16 00:24:01;;;;;;;4.35;3.95;;;;;;;5.75;100.00;95747.34;5061134;28;20051;-76
2023/04/16 00:26:28;;;;;;;6.68;4.90;;;;;;;5.64;100.00;95748.72;5057133;28;20063;-76
2023/04/16 00:28:54;;;;;;;5.05;4.57;;;;;;;5.65;100.00;95747.81;5062116;28;20053;-76
2023/04/16 00:31:28;;;;;;;4.82;4.40;;;;;;;5.62;100.00;95742.81;5057711;28;20041;-76
2023/04/16 00:33:55;;;;;;;4.25;3.92;;;;;;;5.64;100.00;95738.47;5055543;28;20069;-76
2023/04/16 00:36:21;;;;;;;5.38;4.88;;;;;;;5.57;100.00;95746.41;5056805;28;20073;-76
2023/04/16 00:38:48;;;;;;;5.03;4.45;;;;;;;5.63;100.00;95745.31;5059472;28;20060;-76
2023/04/16 00:41:14;;;;;;;6.13;5.15;;;;;;;5.62;100.00;95753.91;5064230;28;20052;-76
2023/04/16 00:43:40;;;;;;;4.65;4.25;;;;;;;5.71;100.00;95744.97;5058810;28;20056;-76
2023/04/16 00:46:08;;;;;;;6.95;4.57;;;;;;;5.67;100.00;95746.00;5058142;28;20442;-77
2023/04/16 00:48:37;;;;;;;5.03;4.60;;;;;;;5.78;100.00;95747.22;5059081;28;20045;-77
2023/04/16 00:51:05;;;;;;;4.00;3.60;;;;;;;5.71;100.00;95750.09;5059079;28;20059;-76
2023/04/16 00:53:33;;;;;;;4.25;3.85;;;;;;;5.62;100.00;95748.78;5061517;28;20044;-77
2023/04/16 00:55:59;;;;;;;4.85;4.20;;;;;;;5.59;100.00;95743.78;5058920;28;20052;-77
2023/04/16 00:58:26;;;;;;;4.32;4.00;;;;;;;5.62;100.00;95756.50;5058660;28;20052;-77
2023/04/16 01:00:52;;;;;;;3.85;3.55;;;;;;;5.62;100.00;95759.06;5058349;28;20056;-77
2023/04/16 01:03:19;;;;;;;4.18;3.85;;;;;;;5.60;100.00;95755.75;5062043;28;20056;-77
2023/04/16 01:05:48;;;;;;;4.40;3.65;;;;;;;5.62;100.00;95753.91;5055831;28;20090;-76
2023/04/16 01:08:16;;;;;;;4.03;3.63;;;;;;;5.69;100.00;95754.50;5058795;28;20574;-77
2023/04/16 01:10:43;;;;;;;3.60;3.30;;;;;;;5.68;100.00;95758.81;5056397;28;20055;-77
2023/04/16 01:13:09;;;;;;;4.80;4.20;;;;;;;5.65;100.00;95747.81;5064056;28;20049;-77
2023/04/16 01:15:35;;;;;;;3.25;3.05;;;;;;;5.60;100.00;95750.59;5060894;28;20049;-77
2023/04/16 01:18:02;;;;;;;2.90;2.70;;;;;;;5.63;100.00;95750.44;5064763;28;20048;-77
2023/04/16 01:20:29;;;;;;;2.63;2.42;;;;;;;5.59;100.00;95747.16;5057475;28;20041;-77
2023/04/16 01:22:57;;;;;;;2.75;2.55;;;;;;;5.55;100.00;95749.94;5058738;28;20498;-77
2023/04/16 01:25:23;;;;;;;2.50;2.30;;;;;;;5.47;100.00;95749.44;5059467;28;20045;-77
2023/04/16 01:27:53;;;;;;;2.88;2.67;;;;;;;5.56;100.00;95756.75;5057189;28;20055;-76
2023/04/16 01:30:20;;;;;;;2.92;2.63;;;;;;;5.58;100.00;95748.06;5059437;28;20041;-77
2023/04/16 01:32:46;;;;;;;2.20;2.00;;;;;;;5.57;100.00;95753.28;5056905;28;20072;-77
2023/04/16 01:35:13;;;;;;;2.17;1.98;;;;;;;5.55;100.00;95750.78;5061328;28;20052;-77
2023/04/16 01:37:39;;;;;;;3.03;2.40;;;;;;;5.52;100.00;95758.59;5061303;28;20045;-77
2023/04/16 01:40:08;;;;;;;2.28;2.08;;;;;;;5.65;100.00;95752.97;5066814;28;20127;-77
2023/04/16 01:42:35;;;;;;;3.78;2.40;;;;;;;5.57;100.00;95761.84;5056649;28;20049;-75
2023/04/16 01:45:01;;;;;;;2.03;1.85;;;;;;;5.49;100.00;95760.50;5058840;28;20043;-76
2023/04/16 01:47:28;;;;;;;1.98;1.80;;;;;;;5.63;100.00;95762.47;5055392;28;20419;-76
2023/04/16 01:49:54;;;;;;;1.65;1.50;;;;;;;5.58;100.00;95763.50;5063480;28;20049;-76
2023/04/16 01:52:21;;;;;;;2.00;1.73;;;;;;;5.60;100.00;95758.31;5055346;28;20052;-76
2023/04/16 01:54:47;;;;;;;2.10;1.90;;;;;;;5.67;100.00;95764.00;5058180;28;20072;-75
2023/04/16 01:57:15;;;;;;;2.55;1.40;;;;;;;5.60;100.00;95763.44;5059105;28;20608;-76
2023/04/16 01:59:42;;;;;;;1.40;1.30;;;;;;;5.61;100.00;95761.72;5057768;28;20101;-76
2023/04/16 02:02:10;;;;;;;1.30;1.20;;;;;;;5.64;100.00;95759.00;5064144;28;20052;-76
2023/04/16 02:04:37;;;;;;;1.65;1.40;;;;;;;5.64;100.00;95759.84;5057005;28;20097;-76
2023/04/16 02:07:04;;;;;;;1.50;1.40;;;;;;;5.61;100.00;95764.28;5054669;28;20045;-76
2023/04/16 02:09:30;;;;;;;2.10;1.63;;;;;;;5.76;100.00;95758.47;5063761;28;20052;-76
2023/04/16 02:11:57;;;;;;;2.72;1.48;;;;;;;5.67;100.00;95762.25;5057209;28;20047;-76
2023/04/16 02:14:25;;;;;;;1.50;1.40;;;;;;;5.67;100.00;95769.13;5055810;28;20037;-76
2023/04/16 02:16:51;;;;;;;1.17;1.08;;;;;;;5.69;100.00;95765.59;5064223;28;20049;-76
2023/04/16 02:19:18;;;;;;;8.02;1.42;;;;;;;5.70;100.00;95766.44;5064415;28;20056;-76
2023/04/16 02:21:44;;;;;;;2.03;1.85;;;;;;;5.68;100.00;95768.25;5070046;28;20051;-75
2023/04/16 02:24:11;;;;;;;1.88;1.70;;;;;;;5.63;100.00;95765.84;5063392;28;20052;-76
2023/04/16 02:26:37;;;;;;;2.25;1.77;;;;;;;5.58;100.00;95770.38;5055104;28;20052;-75
2023/04/16 02:29:04;;;;;;;2.45;1.85;;;;;;;5.65;100.00;95779.47;5054147;28;20072;-76
2023/04/16 02:31:31;;;;;;;3.05;2.40;;;;;;;5.57;100.00;95779.00;5057000;28;20045;-76
2023/04/16 02:33:58;;;;;;;2.47;2.10;;;;;;;5.64;100.00;95771.84;5059446;28;20060;-76
2023/04/16 02:36:26;;;;;;;3.78;2.60;;;;;;;5.55;100.00;95776.47;5052788;28;20052;-77
2023/04/16 02:38:52;;;;;;;2.45;2.25;;;;;;;5.57;100.00;95773.84;5058666;28;20058;-76
2023/04/16 02:41:19;;;;;;;2.10;1.90;;;;;;;5.52;100.00;95768.88;5064905;28;20049;-76
2023/04/16 02:43:45;;;;;;;2.50;2.30;;;;;;;5.59;100.00;95779.75;5058255;28;20052;-77
2023/04/16 02:46:12;;;;;;;2.60;2.40;;;;;;;5.57;100.00;95779.81;5057190;28;20045;-77
2023/04/16 02:48:40;;;;;;;2.38;2.15;;;;;;;5.62;100.00;95781.34;5067233;28;20045;-76
2023/04/16 02:51:06;;;;;;;2.50;2.30;;;;;;;5.62;100.00;95784.75;5060223;28;20048;-77
2023/04/16 02:53:33;;;;;;;2.63;2.42;;;;;;;5.58;100.00;95778.91;5067349;28;20044;-77
2023/04/16 02:55:59;;;;;;;3.13;2.72;;;;;;;5.52;100.00;95779.16;5060366;28;20041;-77
2023/04/16 02:58:26;;;;;;;3.03;2.80;;;;;;;5.51;100.00;95779.25;5066889;28;20041;-77
2023/04/16 03:00:54;;;;;;;3.42;3.05;;;;;;;5.56;100.00;95778.16;5053690;28;20135;-77
2023/04/16 03:03:21;;;;;;;5.40;4.00;;;;;;;5.54;100.00;95779.94;5059483;28;20045;-77
2023/04/16 03:05:49;;;;;;;6.18;3.97;;;;;;;5.64;100.00;95782.13;5063640;28;20506;-75
2023/04/16 03:08:16;;;;;;;4.80;4.22;;;;;;;5.58;100.00;95780.66;5059739;28;20040;-76
2023/04/16 03:10:42;;;;;;;5.38;4.85;;;;;;;5.57;100.00;95787.53;5056214;28;20056;-75
2023/04/16 03:13:09;;;;;;;6.15;5.65;;;;;;;5.56;100.00;95777.28;5063578;28;20051;-76
2023/04/16 03:15:35;;;;;;;8.35;7.07;;;;;;;5.50;100.00;95780.97;5053729;28;20491;-76
2023/04/16 03:18:02;;;;;;;7.65;6.93;;;;;;;5.50;100.00;95785.28;5062388;28;20691;-76
2023/04/16 03:20:28;;;;;;;7.30;6.60;;;;;;;5.46;100.00;95782.00;5061852;28;20499;-75
2023/04/16 03:22:56;;;;;;;8.55;7.22;;;;;;;5.48;100.00;95787.91;5065203;28;20053;-76
2023/04/16 03:25:22;;;;;;;7.93;7.22;;;;;;;5.51;100.00;95781.81;5056532;28;20048;-75
2023/04/16 03:27:49;;;;;;;8.20;7.50;;;;;;;5.51;100.00;95785.22;5054408;28;20044;-76
2023/04/16 03:30:16;;;;;;;7.88;7.18;;;;;;;5.48;100.00;95780.19;5061064;28;20436;-76
2023/04/16 03:32:42;;;;;;;7.72;7.03;;;;;;;5.49;100.00;95787.03;5065584;28;20087;-76
2023/04/16 03:35:10;;;;;;;10.70;7.53;;;;;;;5.54;100.00;95795.34;5058831;28;20423;-77
2023/04/16 03:37:36;;;;;;;7.47;6.78;;;;;;;5.49;100.00;95792.16;5064636;28;20053;-77
2023/04/16 03:40:05;;;;;;;7.40;6.70;;;;;;;5.51;100.00;95794.66;5052528;28;20075;-77
2023/04/16 03:42:32;;;;;;;8.10;6.22;;;;;;;5.50;100.00;95798.97;5065231;28;20491;-77
2023/04/16 03:44:59;;;;;;;7.68;6.97;;;;;;;5.52;100.00;95789.44;5051857;28;20079;-77
2023/04/16 03:47:26;;;;;;;9.00;6.57;;;;;;;5.47;100.00;95799.09;5061813;28;20131;-77
2023/04/16 03:49:52;;;;;;;6.90;6.30;;;;;;;5.51;100.00;95800.63;5061821;28;20044;-77
2023/04/16 03:52:19;;;;;;;8.55;6.43;;;;;;;5.55;100.00;95801.31;5059243;28;20675;-76
2023/04/16 03:54:45;;;;;;;7.43;6.70;;;;;;;5.53;100.00;95800.56;5058397;28;20445;-77
2023/04/16 03:57:13;;;;;;;7.55;6.85;;;;;;;5.56;100.00;95797.84;5055779;28;20514;-77
2023/04/16 03:59:39;;;;;;;7.70;7.00;;;;;;;5.46;100.00;95796.59;5053715;28;20455;-77
2023/04/16 04:02:06;;;;;;;6.22;5.63;;;;;;;5.46;100.00;95802.56;5056727;28;20128;-77
2023/04/16 04:04:32;;;;;;;6.78;6.18;;;;;;;5.48;100.00;95803.31;5060134;28;20059;-76
2023/04/16 04:06:59;;;;;;;5.82;5.32;;;;;;;5.51;100.00;95803.19;5061025;28;20044;-77
2023/04/16 04:09:25;;;;;;;5.45;5.05;;;;;;;5.50;100.00;95806.66;5062504;28;20045;-77
2023/04/16 04:11:52;;;;;;;5.40;4.90;;;;;;;5.56;100.00;95811.56;5062547;28;20048;-76
2023/04/16 04:14:19;;;;;;;4.53;4.13;;;;;;;5.59;100.00;95810.56;5058742;28;20049;-77
2023/04/16 04:16:46;;;;;;;5.13;4.63;;;;;;;5.50;100.00;95800.69;5053778;28;20538;-77
2023/04/16 04:19:12;;;;;;;6.00;4.82;;;;;;;5.56;100.00;95810.69;5054887;28;20476;-77
2023/04/16 04:21:39;;;;;;;5.97;4.47;;;;;;;5.51;100.00;95812.63;5061143;28;20523;-77
2023/04/16 04:24:05;;;;;;;5.32;4.30;;;;;;;5.47;100.00;95808.53;5064827;28;20101;-77
2023/04/16 04:26:32;;;;;;;4.45;4.05;;;;;;;5.41;100.00;95807.03;5052588;28;20041;-76
2023/04/16 04:28:58;;;;;;;4.47;4.07;;;;;;;5.41;100.00;95814.75;5050542;28;20061;-76
2023/04/16 04:31:26;;;;;;;4.57;4.18;;;;;;;5.42;100.00;95813.88;5054609;28;20048;-76
2023/04/16 04:33:52;;;;;;;4.15;3.75;;;;;;;5.45;100.00;95818.88;5059898;28;20056;-76
2023/04/16 04:36:19;;;;;;;5.05;4.65;;;;;;;5.46;100.00;95815.41;5054850;28;20041;-77
2023/04/16 04:38:45;;;;;;;4.80;4.40;;;;;;;5.48;100.00;95823.03;5064450;28;20057;-77
2023/04/16 04:41:12;;;;;;;4.85;4.45;;;;;;;5.48;100.00;95825.59;5059521;28;20052;-77
2023/04/16 04:43:38;;;;;;;6.35;4.88;;;;;;;5.48;100.00;95828.16;5064910;28;20044;-77
2023/04/16 04:46:05;;;;;;;4.40;4.00;;;;;;;5.50;100.00;95837.50;5056241;28;20045;-76
2023/04/16 04:48:33;;;;;;;4.88;4.47;;;;;;;5.48;100.00;95823.88;5069448;28;20047;-77
2023/04/16 04:51:00;;;;;;;4.72;4.28;;;;;;;5.55;100.00;95840.69;5062042;28;20045;-77
2023/04/16 04:53:26;;;;;;;7.93;5.70;;;;;;;5.50;100.00;95840.06;5064808;28;20045;-77
2023/04/16 04:55:53;;;;;;;9.07;6.55;;;;;;;5.56;100.00;95844.94;5063499;28;20423;-77
2023/04/16 04:58:19;;;;;;;8.18;6.45;;;;;;;5.45;100.00;95844.56;5064349;28;20056;-77
2023/04/16 05:00:46;;;;;;;8.40;7.45;;;;;;;5.40;100.00;95848.22;5064006;28;20052;-76
2023/04/16 05:03:12;;;;;;;9.15;8.23;;;;;;;5.39;100.00;95849.13;5063615;28;20040;-76
2023/04/16 05:05:40;;;;;;;12.23;9.15;;;;;;;5.40;100.00;95850.78;5057280;28;20052;-76
2023/04/16 05:08:07;;;;;;;10.57;8.98;;;;;;;5.44;100.00;95855.72;5068695;28;20103;-76
2023/04/16 05:10:33;;;;;;;10.45;9.45;;;;;;;5.50;100.00;95857.22;5055493;28;20041;-76
2023/04/16 05:13:00;;;;;;;12.70;10.38;;;;;;;5.54;100.00;95863.88;5060062;28;20443;-76
2023/04/16 05:15:27;;;;;;;15.13;11.82;;;;;;;5.38;100.00;95861.13;5057816;28;20049;-76
2023/04/16 05:17:54;;;;;;;12.52;11.10;;;;;;;5.36;100.00;95865.47;5061946;28;20427;-76
2023/04/16 05:20:21;;;;;;;14.35;12.52;;;;;;;5.47;100.00;95871.00;5061600;28;20091;-76
2023/04/16 05:22:49;;;;;;;17.05;12.02;;;;;;;5.37;100.00;95874.84;5059348;28;20076;-76
2023/04/16 05:25:16;;;;;;;16.17;13.32;;;;;;;5.38;100.00;95867.97;5059092;28;20045;-76
2023/04/16 05:27:42;;;;;;;14.57;12.73;;;;;;;5.34;100.00;95870.69;5056370;28;20056;-76
2023/04/16 05:30:09;;;;;;;13.13;11.70;;;;;;;5.33;100.00;95871.56;5065513;28;20082;-76
2023/04/16 05:32:36;;;;;;;14.35;12.70;;;;;;;5.27;100.00;95873.56;5060421;28;20462;-76
2023/04/16 05:35:03;;;;;;;14.40;12.13;;;;;;;5.28;100.00;95870.94;5056330;28;20052;-75
2023/04/16 05:37:29;;;;;;;18.35;13.18;;;;;;;5.29;100.00;95880.28;5062816;28;20052;-76
2023/04/16 05:39:57;;;;;;;15.85;13.68;;;;;;;5.28;100.00;95881.19;5061890;28;20041;-75
2023/04/16 05:42:23;;;;;;;17.30;12.80;;;;;;;5.25;100.00;95883.03;5057255;28;20048;-75
2023/04/16 05:44:51;;;;;;;14.38;12.90;;;;;;;5.37;100.00;95887.69;5059599;28;20051;-75
2023/04/16 05:47:17;;;;;;;14.77;13.38;;;;;;;5.33;100.00;95886.13;5059445;28;20076;-75
2023/04/16 05:49:44;;;;;;;13.93;12.43;;;;;;;5.22;100.00;95890.88;5055929;28;20044;-76
2023/04/16 05:52:11;;;;;;;13.48;12.10;;;;;;;5.27;100.00;95897.50;5061065;28;20048;-76
2023/04/16 05:54:37;;;;;;;18.77;13.32;;;;;;;5.29;100.00;95898.25;5065326;28;20053;-76
2023/04/16 05:57:05;;;;;;;16.92;14.32;;;;;;;5.24;100.00;95912.19;5063971;28;20045;-76
2023/04/16 05:59:31;;;;;;;14.30;12.88;;;;;;;5.29;100.00;95925.69;5062099;28;20045;-76
2023/04/16 06:01:58;;;;;;;18.10;15.23;;;;;;;5.25;100.00;95916.44;5062412;28;20057;-76
2023/04/16 06:04:24;;;;;;;17.92;16.17;;;;;;;5.38;100.00;95922.75;5054120;28;20049;-76
2023/04/16 06:06:51;;;;;;;17.75;15.95;;;;;;;5.23;100.00;95913.09;5060856;28;20427;-75
2023/04/16 06:09:18;;;;;;;22.38;18.08;;;;;;;5.19;100.00;95917.53;5059186;28;20060;-76
2023/04/16 06:11:44;;;;;;;21.73;18.52;;;;;;;5.20;100.00;95920.91;5066722;28;20111;-76
2023/04/16 06:14:12;;;;;;;21.65;18.73;;;;;;;5.24;100.00;95922.47;5057013;28;20049;-76
2023/04/16 06:16:39;;;;;;;20.40;18.10;;;;;;;5.18;100.00;95927.84;5056409;28;20048;-76
2023/04/16 06:19:05;;;;;;;21.08;18.67;;;;;;;5.22;100.00;95925.06;5060687;28;20044;-75
2023/04/16 06:21:32;;;;;;;22.05;19.45;;;;;;;5.24;100.00;95920.72;5054966;28;20049;-75
2023/04/16 06:23:58;;;;;;;23.10;19.30;;;;;;;5.15;100.00;95920.25;5062101;28;20045;-76
2023/04/16 06:26:25;;;;;;;26.98;21.30;;;;;;;5.12;100.00;95925.50;5061943;28;20087;-76
2023/04/16 06:28:51;;;;;;;30.38;21.88;;;;;;;5.08;100.00;95922.25;5061727;28;20044;-75
2023/04/16 06:31:19;;;;;;;25.77;20.52;;;;;;;5.11;100.00;95924.66;5063441;28;20499;-75
2023/04/16 06:33:46;;;;;;;23.60;21.15;;;;;;;5.09;100.00;95916.19;5059052;28;20079;-75
2023/04/16 06:36:12;;;;;;;25.35;20.60;;;;;;;5.12;100.00;95930.63;5068469;28;20044;-76
2023/04/16 06:38:39;;;;;;;25.95;21.10;;;;;;;5.08;100.00;95930.78;5062192;28;20056;-76
2023/04/16 06:41:05;;;;;;;31.75;22.02;;;;;;;5.08;100.00;95938.47;5062385;28;20041;-75
2023/04/16 06:43:33;;;;;;;26.80;21.02;;;;;;;5.06;100.00;95932.53;5058048;28;20131;-75
2023/04/16 06:45:59;;;;;;;28.42;21.85;;;;;;;5.14;100.00;95937.38;5065545;28;20072;-75
2023/04/16 06:48:27;;;;;;;27.80;21.73;;;;;;;5.14;100.00;95939.94;5057034;28;20593;-76
2023/04/16 06:50:54;;;;;;;26.30;21.50;;;;;;;5.16;100.00;95934.78;5061708;28;20048;-75
2023/04/16 06:53:21;;;;;;;24.65;20.55;;;;;;;5.13;100.00;95940.03;5062232;28;20098;-75
2023/04/16 06:55:47;;;;;;;22.75;20.30;;;;;;;5.18;100.00;95941.50;5065815;28;20053;-75
2023/04/16 06:58:14;;;;;;;24.67;19.13;;;;;;;5.21;100.00;95941.38;5058978;28;20048;-75
2023/04/16 07:00:40;;;;;;;26.20;20.35;;;;;;;5.17;100.00;95946.72;5056441;28;20053;-76
2023/04/16 07:03:06;;;;;;;24.58;19.83;;;;;;;5.25;100.00;95942.09;5061367;28;20055;-75
2023/04/16 07:05:34;;;;;;;26.10;20.25;;;;;;;5.21;100.00;95940.56;5067676;28;20049;-75
2023/04/16 07:08:01;;;;;;;23.45;19.00;;;;;;;5.20;100.00;95944.03;5062519;28;20044;-75
2023/04/16 07:10:27;;;;;;;22.20;19.38;;;;;;;5.21;100.00;95943.97;5054269;28;20048;-76
2023/04/16 07:12:54;;;;;;;20.75;18.65;;;;;;;5.31;100.00;95949.59;5054406;28;20458;-76
2023/04/16 07:15:20;;;;;;;21.80;18.33;;;;;;;5.28;100.00;95940.25;5053685;28;20045;-76
2023/04/16 07:17:47;;;;;;;21.13;18.90;;;;;;;5.21;100.00;95949.09;5054786;28;20044;-75
2023/04/16 07:20:13;;;;;;;27.52;20.23;;;;;;;5.25;100.00;95949.81;5058242;28;20044;-75
2023/04/16 07:22:42;;;;;;;23.33;19.10;;;;;;;5.26;100.00;95954.03;5053540;28;20526;-75
2023/04/16 07:25:09;;;;;;;20.48;18.15;;;;;;;5.33;100.00;95947.78;5053982;28;20075;-76
2023/04/16 07:27:35;;;;;;;22.27;18.95;;;;;;;5.40;100.00;95959.47;5059586;28;20052;-75
2023/04/16 07:30:02;;;;;;;25.75;19.08;;;;;;;5.24;100.00;95959.25;5055529;28;20053;-75
2023/04/16 07:32:29;;;;;;;18.08;16.35;;;;;;;5.29;100.00;95956.50;5058487;28;20451;-76
2023/04/16 07:34:56;;;;;;;19.48;17.55;;;;;;;5.49;100.00;95966.00;5050798;28;20517;-76
2023/04/16 07:37:22;;;;;;;22.88;17.55;;;;;;;5.43;100.00;95967.06;5053151;28;20044;-76
2023/04/16 07:39:50;;;;;;;21.60;17.75;;;;;;;5.43;100.00;95969.63;5059524;28;20060;-76
2023/04/16 07:42:17;;;;;;;23.20;17.75;;;;;;;5.32;100.00;95966.66;5055236;28;20052;-76
2023/04/16 07:44:43;;;;;;;20.80;16.90;;;;;;;5.33;100.00;95973.47;5059536;28;20052;-75
2023/04/16 07:47:10;;;;;;;19.55;15.88;;;;;;;5.40;100.00;95972.31;5053044;28;20041;-76
2023/04/16 07:49:36;;;;;;;20.45;17.67;;;;;;;5.39;100.00;95968.09;5062899;28;20055;-76
2023/04/16 07:52:03;;;;;;;20.45;16.70;;;;;;;5.33;100.00;95978.59;5056382;28;20051;-76
2023/04/16 07:54:29;;;;;;;18.33;16.40;;;;;;;5.33;100.00;95976.84;5054030;28;20411;-76
2023/04/16 07:56:57;;;;;;;22.73;18.10;;;;;;;5.30;100.00;95976.13;5065351;28;20040;-76
2023/04/16 07:59:23;;;;;;;21.10;16.08;;;;;;;5.28;100.00;95981.34;5061006;28;20384;-75
2023/04/16 08:01:50;;;;;;;17.40;15.52;;;;;;;5.34;100.00;95985.44;5056711;28;20048;-76
2023/04/16 08:04:23;;;;;;;20.17;15.38;;;;;;;5.32;100.00;95993.16;5055752;28;20056;-76
2023/04/16 08:06:49;;;;;;;20.52;15.18;;;;;;;5.36;100.00;95988.75;5051065;28;20045;-76
2023/04/16 08:09:16;;;;;;;31.17;17.05;;;;;;;5.31;100.00;95991.50;5060806;28;20406;-77
2023/04/16 08:11:42;;;;;;;19.67;16.67;;;;;;;5.36;100.00;95993.88;5057218;28;20091;-76
2023/04/16 08:14:10;;;;;;;22.00;16.13;;;;;;;5.47;100.00;95999.44;5067287;28;20052;-76
2023/04/16 08:16:37;;;;;;;17.55;15.50;;;;;;;5.42;100.00;95993.66;5056066;28;20531;-76
2023/04/16 08:19:04;;;;;;;20.92;15.30;;;;;;;5.43;100.00;96003.03;5060335;28;20045;-77
2023/04/16 08:21:30;;;;;;;17.00;15.02;;;;;;;5.39;100.00;96003.22;5061999;28;20128;-76
2023/04/16 08:23:57;;;;;;;18.92;14.68;;;;;;;5.43;100.00;96005.59;5061357;28;20048;-77
2023/04/16 08:26:24;;;;;;;16.88;15.02;;;;;;;5.39;100.00;96006.63;5062950;28;20045;-77
2023/04/16 08:28:50;;;;;;;16.35;14.65;;;;;;;5.50;100.00;96013.91;5059462;28;20045;-77
2023/04/16 08:31:18;;;;;;;21.75;14.82;;;;;;;5.44;100.00;96011.56;5061056;28;20048;-76
2023/04/16 08:33:45;;;;;;;17.13;14.30;;;;;;;5.53;100.00;96022.34;5059629;28;20548;-77
2023/04/16 08:36:11;;;;;;;16.77;14.32;;;;;;;5.53;100.00;96018.94;5062758;28;20049;-77
2023/04/16 08:38:38;;;;;;;22.92;13.77;;;;;;;5.61;100.00;96028.91;5064334;28;20559;-76
2023/04/16 08:41:06;;;;;;;21.15;15.68;;;;;;;5.68;100.00;96031.19;5066831;28;20057;-77
2023/04/16 08:43:34;;;;;;;18.67;14.88;;;;;;;5.71;100.00;96035.34;5061813;28;20053;-77
2023/04/16 08:46:01;;;;;;;20.83;14.70;;;;;;;5.76;100.00;96026.56;5061944;28;20124;-77
2023/04/16 08:48:33;;;;;;;17.88;15.27;;;;;;;5.74;100.00;96036.06;5055037;28;20045;-77
2023/04/16 08:51:01;;;;;;;16.60;14.30;;;;;;;5.84;100.00;96036.53;5061500;28;20438;-77
2023/04/16 08:53:36;;;;;;;21.30;14.50;;;;;;;5.90;100.00;96030.34;5061465;28;20049;-77
2023/04/16 08:56:05;;;;;;;15.65;14.13;;;;;;;5.73;100.00;96036.97;5061920;28;20079;-77
2023/04/16 08:58:34;;;;;;;21.50;15.80;;;;;;;5.85;100.00;96040.78;5066441;28;20052;-77
2023/04/16 09:01:03;;;;;;;16.00;14.07;;;;;;;5.81;100.00;96040.06;5058508;28;20457;-77
2023/04/16 09:03:31;;;;;;;19.35;14.88;;;;;;;5.81;100.00;96034.09;5062059;28;20411;-77
2023/04/16 09:05:59;;;;;;;18.08;14.77;;;;;;;5.93;100.00;96043.94;5057822;28;20051;-77
2023/04/16 09:08:26;;;;;;;17.13;15.18;;;;;;;5.96;100.00;96041.22;5062102;28;20049;-77
2023/04/16 09:10:53;;;;;;;18.75;15.45;;;;;;;5.92;100.00;96044.81;5064359;28;20068;-77
2023/04/16 09:13:22;;;;;;;19.77;16.05;;;;;;;6.01;100.00;96043.63;5066686;28;20406;-77
2023/04/16 09:15:52;;;;;;;19.92;16.92;;;;;;;5.92;100.00;96044.81;5060364;28;20083;-77
2023/04/16 09:18:19;;;;;;;17.50;15.63;;;;;;;5.88;100.00;96047.53;5057272;28;20048;-77
2023/04/16 09:20:47;;;;;;;18.40;15.50;;;;;;;5.74;100.00;96048.91;5063058;28;20045;-76
2023/04/16 09:23:14;;;;;;;20.40;16.40;;;;;;;5.75;100.00;96049.78;5061793;28;20049;-77
2023/04/16 09:25:40;;;;;;;25.02;17.02;;;;;;;5.96;100.00;96053.25;5061139;28;20663;-76
2023/04/16 09:28:06;;;;;;;21.35;17.35;;;;;;;5.84;100.00;96054.53;5056606;28;20514;-77
2023/04/16 09:30:33;;;;;;;21.60;16.33;;;;;;;5.79;100.00;96049.59;5067406;28;20514;-76
2023/04/16 09:33:14;;;;;;;21.52;16.15;;;;;;;5.82;100.00;96056.31;5058608;28;20808;-76
2023/04/16 09:35:47;;;;;;;19.00;16.92;;;;;;;5.92;100.00;96056.78;5064668;28;20083;-76
2023/04/16 09:38:13;;;;;;;21.88;17.48;;;;;;;5.86;100.00;96052.75;5055739;28;20079;-75
2023/04/16 09:40:40;;;;;;;22.50;16.75;;;;;;;5.83;100.00;96056.28;5067728;28;20053;-76
2023/04/16 09:43:11;;;;;;;23.00;17.50;;;;;;;5.76;100.00;96057.41;5051430;28;20049;-76
2023/04/16 09:45:48;;;;;;;22.20;18.60;;;;;;;5.75;100.00;96063.44;5063461;28;20059;-76
2023/04/16 09:48:15;;;;;;;21.45;18.58;;;;;;;5.72;100.00;96063.56;5056200;28;20041;-76
2023/04/16 09:50:51;;;;;;;27.65;19.20;;;;;;;5.66;100.00;96057.81;5062089;28;20150;-76
2023/04/16 09:53:24;;;;;;;23.85;18.38;;;;;;;5.67;100.00;96056.91;5063108;28;20143;-76
2023/04/16 09:55:50;;;;;;;23.20;19.20;;;;;;;5.70;100.00;96065.34;5063929;28;20048;-76
2023/04/16 09:58:19;;;;;;;24.15;20.23;;;;;;;5.72;100.00;96057.59;5061244;28;20048;-76
2023/04/16 10:00:45;;;;;;;25.90;19.60;;;;;;;5.83;100.00;96065.72;5054963;28;20051;-76
2023/04/16 10:03:12;;;;;;;24.48;18.85;;;;;;;5.76;100.00;96077.13;5070610;28;20051;-76
2023/04/16 10:05:38;;;;;;;;;;;;;;;5.80;100.00;96076.13;4996888;28;1749620;-76
2023/04/16 10:08:13;;;;;;;19.88;17.77;;;;;;;5.70;100.00;96070.47;5062525;28;19921;-76
2023/04/16 10:10:40;;;;;;;31.05;19.95;;;;;;;5.82;100.00;96079.44;5053839;28;20049;-76
2023/04/16 10:13:07;;;;;;;25.90;19.30;;;;;;;5.79;100.00;96080.44;5054247;28;20450;-76
2023/04/16 10:15:33;;;;;;;29.60;18.67;;;;;;;5.86;100.00;96077.59;5068957;28;20051;-76
2023/04/16 10:18:00;;;;;;;26.27;18.58;;;;;;;5.91;100.00;96086.81;5055536;28;20518;-76
2023/04/16 10:20:27;;;;;;;17.50;15.63;;;;;;;5.92;100.00;96091.09;5057656;28;20487;-76
2023/04/16 10:22:54;;;;;;;21.17;17.20;;;;;;;5.85;100.00;96092.19;5054793;28;20048;-76
2023/04/16 10:25:23;;;;;;;28.35;18.45;;;;;;;5.85;100.00;96099.91;5056756;28;20045;-77
2023/04/16 10:27:50;;;;;;;21.27;17.83;;;;;;;5.92;100.00;96096.22;5051697;28;20044;-76
2023/04/16 10:30:18;;;;;;;22.77;17.75;;;;;;;5.95;100.00;96097.84;5059441;28;20041;-76
2023/04/16 10:32:45;;;;;;;25.35;17.75;;;;;;;5.97;100.00;96094.31;5070814;28;20040;-76
2023/04/16 10:35:15;;;;;;;19.20;16.27;;;;;;;6.03;100.00;96091.50;5066921;28;20064;-76
2023/04/16 10:37:43;;;;;;;23.05;17.45;;;;;;;6.06;100.00;96091.38;5071065;28;20090;-77
2023/04/16 10:40:24;;;;;;;22.63;17.48;;;;;;;6.12;100.00;96094.59;5061834;28;20051;-77
2023/04/16 10:42:55;;;;;;;23.38;15.20;;;;;;;6.01;100.00;96095.03;5061809;28;20048;-76
2023/04/16 10:45:27;;;;;;;18.58;15.43;;;;;;;6.00;100.00;96093.34;5060809;28;20041;-76
2023/04/16 10:47:56;;;;;;;20.07;14.90;;;;;;;6.00;100.00;96094.19;5059277;28;20072;-77
2023/04/16 10:50:22;;;;;;;17.90;15.20;;;;;;;5.98;100.00;96093.41;5055938;28;20478;-77
2023/04/16 10:52:49;;;;;;;17.48;14.48;;;;;;;6.06;100.00;96095.69;5072222;28;20056;-77
2023/04/16 10:55:16;;;;;;;27.88;15.68;;;;;;;6.02;100.00;96097.53;5063777;28;20047;-77
2023/04/16 10:57:49;;;;;;;18.90;14.80;;;;;;;5.97;100.00;96096.03;5058733;28;20406;-77
2023/04/16 11:00:22;;;;;;;21.80;15.75;;;;;;;6.05;100.00;96096.59;5058270;28;20051;-76
2023/04/16 11:02:53;;;;;;;14.68;12.90;;;;;;;6.01;100.00;96090.72;5062167;28;20310;-77
2023/04/16 11:05:22;;;;;;;17.40;14.63;;;;;;;6.05;100.00;96094.03;5060699;28;20113;-77
2023/04/16 11:07:48;;;;;;;21.70;15.07;;;;;;;6.00;100.00;96096.75;5059748;28;20076;-77
2023/04/16 11:10:15;;;;;;;17.33;14.18;;;;;;;6.10;100.00;96094.66;5060081;28;20077;-77
2023/04/16 11:12:43;;;;;;;16.75;14.70;;;;;;;6.12;100.00;96097.16;5061078;28;20045;-77
2023/04/16 11:15:13;;;;;;;15.55;13.02;;;;;;;6.13;100.00;96088.56;5059434;28;20585;-77
2023/04/16 11:17:40;;;;;;;17.67;15.20;;;;;;;6.11;100.00;96100.63;5059020;28;20056;-77
2023/04/16 11:20:09;;;;;;;16.33;13.75;;;;;;;6.01;100.00;96092.47;5051615;28;20051;-77
2023/04/16 11:22:36;;;;;;;15.02;13.25;;;;;;;6.12;100.00;96092.03;5063384;28;20048;-77
2023/04/16 11:25:03;;;;;;;16.77;13.75;;;;;;;6.15;100.00;96087.59;5060580;28;20079;-77